createdAt,value
2023-10-19T00:00:22.958Z,99001.19
2023-10-19T00:02:57.026Z,99007.25
2023-10-19T00:05:30.926Z,99012.56
2023-10-19T00:08:08.715Z,99010.94
2023-10-19T00:10:44.034Z,99002.88
2023-10-19T00:13:20.336Z,99005.66
2023-10-19T00:15:54.891Z,99012.25
2023-10-19T00:18:28.374Z,99010.50
2023-10-19T00:21:00.972Z,99005.53
2023-10-19T00:23:34.476Z,99012.47
2023-10-19T00:26:10.101Z,99003.00
2023-10-19T00:28:50.673Z,99003.09
2023-10-19T00:31:25.956Z,99001.34
2023-10-19T00:33:59.560Z,99001.34
2023-10-19T00:36:33.199Z,98996.72
2023-10-19T00:39:15.980Z,99005.19
2023-10-19T00:41:49.728Z,99003.53
2023-10-19T00:44:33.414Z,99005.97
2023-10-19T00:47:13.732Z,99020.84
2023-10-19T00:49:48.383Z,99018.31
2023-10-19T00:52:24.672Z,99017.84
2023-10-19T00:55:00.120Z,99011.00
2023-10-19T00:57:35.793Z,99015.06
2023-10-19T01:00:13.726Z,99016.06
2023-10-19T01:02:48.625Z,99015.63
2023-10-19T01:05:23.872Z,99017.91
2023-10-19T01:07:58.574Z,98999.72
2023-10-19T01:10:33.283Z,99006.78
2023-10-19T01:13:07.139Z,99001.56
2023-10-19T01:15:42.170Z,99007.41
2023-10-19T01:18:18.031Z,98999.34
2023-10-19T01:20:53.133Z,98999.03
2023-10-19T01:23:30.522Z,99009.69
2023-10-19T01:26:06.981Z,99002.38
2023-10-19T01:28:49.848Z,98997.63
2023-10-19T01:31:39.774Z,99002.63
2023-10-19T01:34:13.597Z,99011.44
2023-10-19T01:36:46.802Z,99003.84
2023-10-19T01:39:20.258Z,99008.25
2023-10-19T01:41:53.619Z,99006.47
2023-10-19T01:44:26.807Z,98999.72
2023-10-19T01:47:02.250Z,99002.16
2023-10-19T01:49:34.653Z,99004.81
2023-10-19T01:52:07.940Z,99002.47
2023-10-19T01:54:41.382Z,99009.22
2023-10-19T01:57:15.974Z,99005.13
2023-10-19T01:59:48.345Z,99002.22
2023-10-19T02:02:23.107Z,99000.06
2023-10-19T02:04:57.181Z,99002.22
2023-10-19T02:07:30.518Z,98999.16
2023-10-19T02:10:05.016Z,98996.72
2023-10-19T02:12:38.837Z,98994.91
2023-10-19T02:15:10.797Z,98990.75
2023-10-19T02:17:45.745Z,98991.06
2023-10-19T02:20:33.817Z,98997.56
2023-10-19T02:23:12.783Z,98994.03
2023-10-19T02:25:47.101Z,98993.38
2023-10-19T02:28:30.380Z,98991.84
2023-10-19T02:31:12.314Z,98989.72
2023-10-19T02:33:53.339Z,98990.03
2023-10-19T02:36:29.370Z,98984.84
2023-10-19T02:39:09.082Z,98985.16
2023-10-19T02:41:45.283Z,98981.44
2023-10-19T02:44:23.501Z,98982.59
2023-10-19T02:47:01.067Z,98980.78
2023-10-19T02:49:39.622Z,98979.31
2023-10-19T02:52:15.089Z,98975.00
2023-10-19T02:54:48.419Z,98982.97
2023-10-19T02:57:23.260Z,98974.03
2023-10-19T02:59:55.448Z,98972.69
2023-10-19T03:02:29.644Z,98970.41
2023-10-19T03:05:02.594Z,98970.41
2023-10-19T03:07:35.916Z,98977.13
2023-10-19T03:10:08.789Z,98963.31
2023-10-19T03:12:44.276Z,98957.16
2023-10-19T03:15:16.728Z,98973.06
2023-10-19T03:17:50.666Z,98964.47
2023-10-19T03:20:25.365Z,98966.00
2023-10-19T03:23:02.283Z,98975.50
2023-10-19T03:26:18.420Z,98961.50
2023-10-19T03:28:56.384Z,98953.56
2023-10-19T03:31:29.954Z,98965.59
2023-10-19T03:34:06.588Z,98964.63
2023-10-19T03:36:40.471Z,98963.09
2023-10-19T03:39:14.471Z,98960.13
2023-10-19T03:41:53.997Z,98957.47
2023-10-19T03:44:40.018Z,98958.69
2023-10-19T03:47:15.718Z,98959.41
2023-10-19T03:49:50.056Z,98971.41
2023-10-19T03:52:23.668Z,98964.66
2023-10-19T03:54:58.779Z,98960.81
2023-10-19T03:57:32.533Z,98963.25
2023-10-19T04:00:17.381Z,98958.50
2023-10-19T04:02:54.703Z,98966.97
2023-10-19T04:05:29.867Z,98965.75
2023-10-19T04:08:10.692Z,98964.56
2023-10-19T04:10:48.729Z,98966.28
2023-10-19T04:13:22.776Z,98965.19
2023-10-19T04:15:57.295Z,98971.81
2023-10-19T04:18:31.128Z,98972.00
2023-10-19T04:21:04.492Z,98974.44
2023-10-19T04:23:38.146Z,98962.75
2023-10-19T04:26:13.053Z,98965.59
2023-10-19T04:28:51.998Z,98972.25
2023-10-19T04:31:26.638Z,98969.94
2023-10-19T04:33:59.712Z,98974.84
2023-10-19T04:36:34.828Z,98966.25
2023-10-19T04:39:13.037Z,98971.31
2023-10-19T04:41:48.334Z,98974.84
2023-10-19T04:44:21.563Z,98976.09
2023-10-19T04:46:56.382Z,98976.28
2023-10-19T04:49:30.659Z,98980.38
2023-10-19T04:52:04.640Z,98978.59
2023-10-19T04:54:38.744Z,98972.44
2023-10-19T04:57:12.050Z,98975.19
2023-10-19T04:59:46.657Z,98977.81
2023-10-19T05:02:21.380Z,98984.13
2023-10-19T05:04:55.039Z,98980.13
2023-10-19T05:07:28.333Z,98986.56
2023-10-19T05:10:04.399Z,98986.13
2023-10-19T05:12:38.182Z,98992.09
2023-10-19T05:15:12.549Z,98991.19
2023-10-19T05:17:47.077Z,98978.59
2023-10-19T05:20:22.450Z,98979.38
2023-10-19T05:22:56.016Z,98977.38
2023-10-19T05:25:29.359Z,98971.53
2023-10-19T05:28:02.460Z,98976.94
2023-10-19T05:30:35.578Z,98966.22
2023-10-19T05:33:10.614Z,98973.72
2023-10-19T05:35:44.729Z,98972.19
2023-10-19T05:38:17.934Z,98968.19
2023-10-19T05:40:53.467Z,98965.13
2023-10-19T05:43:26.666Z,98970.66
2023-10-19T05:45:59.564Z,98972.81
2023-10-19T05:48:33.954Z,98977.38
2023-10-19T05:51:07.286Z,98976.94
2023-10-19T05:53:40.416Z,98974.59
2023-10-19T05:56:13.563Z,98979.25
2023-10-19T05:58:49.940Z,98964.47
2023-10-19T06:01:23.389Z,98980.78
2023-10-19T06:03:58.045Z,98971.94
2023-10-19T06:06:31.193Z,98977.88
2023-10-19T06:09:05.827Z,98983.09
2023-10-19T06:11:43.776Z,98983.88
2023-10-19T06:14:16.974Z,98982.31
2023-10-19T06:16:50.272Z,98994.16
2023-10-19T06:19:24.715Z,98998.66
2023-10-19T06:21:57.818Z,98995.56
2023-10-19T06:24:30.739Z,99005.41
2023-10-19T06:27:05.160Z,99007.50
2023-10-19T06:29:38.154Z,99019.00
2023-10-19T06:32:11.092Z,99016.38
2023-10-19T06:34:45.937Z,99019.31
2023-10-19T06:37:19.459Z,99024.84
2023-10-19T06:39:55.219Z,99022.53
2023-10-19T06:42:28.404Z,99021.66
2023-10-19T06:45:01.393Z,99022.28
2023-10-19T06:47:38.397Z,99009.84
2023-10-19T06:50:14.582Z,99012.25
2023-10-19T06:52:49.152Z,99013.94
2023-10-19T06:55:22.679Z,99019.47
2023-10-19T06:57:56.923Z,99008.94
2023-10-19T07:00:29.883Z,99012.00
2023-10-19T07:03:03.711Z,99013.13
2023-10-19T07:05:38.134Z,99016.00
2023-10-19T07:08:11.240Z,99019.22
2023-10-19T07:10:44.702Z,99023.81
2023-10-19T07:13:18.154Z,99027.69
2023-10-19T07:15:51.402Z,99018.66
2023-10-19T07:18:24.888Z,99018.97
2023-10-19T07:21:04.384Z,99015.28
2023-10-19T07:23:39.169Z,99023.56
2023-10-19T07:26:12.820Z,99022.94
2023-10-19T07:28:45.854Z,99021.94
2023-10-19T07:31:18.479Z,99031.28
2023-10-19T07:33:51.963Z,99030.72
2023-10-19T07:36:26.096Z,99031.19
2023-10-19T07:38:58.848Z,99023.06
2023-10-19T07:41:37.581Z,99035.66
2023-10-19T07:44:10.671Z,99038.00
2023-10-19T07:46:43.690Z,99021.25
2023-10-19T07:49:16.677Z,99027.25
2023-10-19T07:51:51.148Z,99025.00
2023-10-19T07:54:24.145Z,99017.47
2023-10-19T07:56:58.775Z,99030.22
2023-10-19T07:59:32.350Z,99034.09
2023-10-19T08:02:05.600Z,99034.00
2023-10-19T08:04:38.844Z,99021.69
2023-10-19T08:07:13.087Z,99021.88
2023-10-19T08:09:46.711Z,99024.19
2023-10-19T08:12:24.004Z,99016.22
2023-10-19T08:14:57.700Z,99016.84
2023-10-19T08:17:31.023Z,99013.47
2023-10-19T08:20:05.010Z,99020.44
2023-10-19T08:22:39.385Z,99029.19
2023-10-19T08:25:13.919Z,99016.25
2023-10-19T08:27:50.864Z,99018.75
2023-10-19T08:30:26.378Z,99012.34
2023-10-19T08:33:00.894Z,99012.97
2023-10-19T08:35:33.638Z,99012.06
2023-10-19T08:38:12.755Z,99008.53
2023-10-19T08:40:47.065Z,99010.25
2023-10-19T08:43:20.535Z,99012.41
2023-10-19T08:45:53.315Z,99011.81
2023-10-19T08:48:26.929Z,99012.13
2023-10-19T08:51:00.604Z,99014.59
2023-10-19T08:53:40.690Z,99014.00
2023-10-19T08:56:13.900Z,99005.97
2023-10-19T08:58:47.229Z,98996.28
2023-10-19T09:01:25.104Z,98998.94
2023-10-19T09:03:59.605Z,98999.88
2023-10-19T09:06:32.770Z,99002.34
2023-10-19T09:09:10.868Z,99012.50
2023-10-19T09:11:44.290Z,99008.03
2023-10-19T09:14:18.959Z,98992.97
2023-10-19T09:16:58.704Z,98991.88
2023-10-19T09:19:39.187Z,98977.75
2023-10-19T09:22:19.493Z,98991.00
2023-10-19T09:24:55.344Z,98988.09
2023-10-19T09:27:28.129Z,98982.56
2023-10-19T09:30:02.362Z,98991.47
2023-10-19T09:32:35.734Z,98997.47
2023-10-19T09:35:12.057Z,98991.94
2023-10-19T09:37:45.161Z,98986.09
2023-10-19T09:40:20.896Z,98991.06
2023-10-19T09:42:59.017Z,98982.44
2023-10-19T09:45:34.413Z,98994.88
2023-10-19T09:48:10.242Z,98994.88
2023-10-19T09:50:43.622Z,98986.75
2023-10-19T09:53:17.064Z,98987.66
2023-10-19T09:55:53.573Z,98989.50
2023-10-19T09:58:31.549Z,98978.88
2023-10-19T10:01:05.094Z,98987.03
2023-10-19T10:03:49.058Z,98984.25
2023-10-19T10:06:30.415Z,98978.09
2023-10-19T10:09:04.767Z,98974.53
2023-10-19T10:11:39.323Z,98971.31
2023-10-19T10:14:26.456Z,98976.00
2023-10-19T10:17:03.130Z,98988.00
2023-10-19T10:19:36.049Z,98996.44
2023-10-19T10:22:13.324Z,98988.13
2023-10-19T10:24:47.240Z,98987.25
2023-10-19T10:27:21.939Z,98984.50
2023-10-19T10:29:59.657Z,98991.84
2023-10-19T10:32:48.929Z,98988.56
2023-10-19T10:35:55.972Z,99000.88
2023-10-19T10:38:36.533Z,98993.78
2023-10-19T10:41:12.824Z,98984.31
2023-10-19T10:43:55.102Z,98975.81
2023-10-19T10:46:30.286Z,98982.53
2023-10-19T10:49:03.636Z,98984.09
2023-10-19T10:51:36.541Z,98987.94
2023-10-19T10:54:09.904Z,98989.28
2023-10-19T10:56:43.654Z,98987.81
2023-10-19T10:59:18.767Z,98972.63
2023-10-19T11:01:52.398Z,98964.19
2023-10-19T11:04:25.558Z,98965.94
2023-10-19T11:06:59.855Z,98963.41
2023-10-19T11:09:45.845Z,98953.38
2023-10-19T11:12:20.342Z,98956.84
2023-10-19T11:14:55.798Z,98952.22
2023-10-19T11:17:31.811Z,98945.88
2023-10-19T11:20:20.139Z,98942.94
2023-10-19T11:22:56.912Z,98945.69
2023-10-19T11:25:32.053Z,98939.81
2023-10-19T11:28:19.115Z,98932.56
2023-10-19T11:30:57.505Z,98931.41
2023-10-19T11:33:31.079Z,98939.47
2023-10-19T11:36:03.839Z,98938.59
2023-10-19T11:38:37.320Z,98926.25
2023-10-19T11:41:10.394Z,98929.47
2023-10-19T11:43:46.033Z,98921.25
2023-10-19T11:46:22.937Z,98922.41
2023-10-19T11:48:55.966Z,98916.28
2023-10-19T11:51:28.692Z,98918.47
2023-10-19T11:54:02.202Z,98924.31
2023-10-19T11:56:36.053Z,98918.56
2023-10-19T11:59:09.540Z,98916.19
2023-10-19T12:01:44.274Z,98902.78
2023-10-19T12:04:20.221Z,98901.59
2023-10-19T12:06:54.346Z,98902.88
2023-10-19T12:09:27.271Z,98901.47
2023-10-19T12:12:06.769Z,98898.38
2023-10-19T12:14:39.842Z,98889.00
2023-10-19T12:17:14.091Z,98888.50
2023-10-19T12:19:47.105Z,98876.72
2023-10-19T12:22:19.876Z,98892.63
2023-10-19T12:24:59.923Z,98889.72
2023-10-19T12:27:32.591Z,98887.13
2023-10-19T12:30:21.578Z,98883.41
2023-10-19T12:32:56.400Z,98878.91
2023-10-19T12:35:45.673Z,98879.56
2023-10-19T12:38:18.909Z,98872.28
2023-10-19T12:40:52.740Z,98869.22
2023-10-19T12:43:26.438Z,98878.03
2023-10-19T12:45:59.965Z,98877.72
2023-10-19T12:48:37.180Z,98875.56
2023-10-19T12:51:12.814Z,98873.91
2023-10-19T12:53:47.329Z,98861.75
2023-10-19T12:56:25.940Z,98865.78
2023-10-19T12:59:00.841Z,98866.69
2023-10-19T13:01:36.718Z,98859.34
2023-10-19T13:04:17.824Z,98858.09
2023-10-19T13:06:51.019Z,98847.88
2023-10-19T13:09:32.094Z,98853.09
2023-10-19T13:12:09.114Z,98852.34
2023-10-19T13:14:45.355Z,98854.06
2023-10-19T13:17:21.111Z,98841.44
2023-10-19T13:20:00.091Z,98836.53
2023-10-19T13:22:35.027Z,98827.63
2023-10-19T13:25:10.541Z,98828.84
2023-10-19T13:27:43.822Z,98833.63
2023-10-19T13:30:16.731Z,98822.06
2023-10-19T13:32:50.482Z,98831.63
2023-10-19T13:35:31.528Z,98826.44
2023-10-19T13:38:09.085Z,98825.84
2023-10-19T13:40:46.208Z,98823.72
2023-10-19T13:43:22.647Z,98818.78
2023-10-19T13:45:58.142Z,98816.63
2023-10-19T13:48:31.034Z,98814.16
2023-10-19T13:51:14.721Z,98805.19
2023-10-19T13:53:48.212Z,98806.72
2023-10-19T13:56:21.201Z,98798.09
2023-10-19T13:58:54.392Z,98799.63
2023-10-19T14:01:30.793Z,98783.94
2023-10-19T14:04:04.239Z,98778.38
2023-10-19T14:06:43.282Z,98776.25
2023-10-19T14:09:18.497Z,98772.84
2023-10-19T14:11:55.143Z,98772.06
2023-10-19T14:14:28.045Z,98776.25
2023-10-19T14:17:01.784Z,98775.22
2023-10-19T14:19:34.775Z,98773.78
2023-10-19T14:22:09.437Z,98765.63
2023-10-19T14:24:42.911Z,98749.47
2023-10-19T14:27:17.955Z,98746.59
2023-10-19T14:29:51.394Z,98738.75
2023-10-19T14:32:28.190Z,98729.66
2023-10-19T14:35:02.620Z,98734.72
2023-10-19T14:37:37.124Z,98721.13
2023-10-19T14:40:15.919Z,98740.66
2023-10-19T14:42:55.315Z,98750.53
2023-10-19T14:45:33.729Z,98753.19
2023-10-19T14:48:09.901Z,98750.31
2023-10-19T14:50:48.391Z,98743.38
2023-10-19T14:53:23.321Z,98739.53
2023-10-19T14:55:59.552Z,98741.06
2023-10-19T14:58:32.790Z,98735.91
2023-10-19T15:01:07.706Z,98725.56
2023-10-19T15:03:40.760Z,98731.13
2023-10-19T15:06:15.628Z,98717.81
2023-10-19T15:08:49.788Z,98719.44
2023-10-19T15:11:23.324Z,98718.13
2023-10-19T15:13:56.278Z,98703.38
2023-10-19T15:16:28.937Z,98708.53
2023-10-19T15:19:01.834Z,98699.56
2023-10-19T15:21:34.664Z,98711.41
2023-10-19T15:24:09.318Z,98711.81
2023-10-19T15:26:42.227Z,98711.88
2023-10-19T15:29:15.038Z,98717.34
2023-10-19T15:31:48.824Z,98725.47
2023-10-19T15:34:22.461Z,98726.31
2023-10-19T15:36:55.960Z,98726.91
2023-10-19T15:39:30.669Z,98730.91
2023-10-19T15:42:05.281Z,98726.03
2023-10-19T15:44:38.508Z,98729.72
2023-10-19T15:47:13.348Z,98730.97
2023-10-19T15:49:50.683Z,98727.28
2023-10-19T15:52:24.573Z,98736.06
2023-10-19T15:54:59.625Z,98717.09
2023-10-19T15:57:34.837Z,98725.91
2023-10-19T16:00:15.542Z,98725.16
2023-10-19T16:02:49.209Z,98726.09
2023-10-19T16:05:22.557Z,98716.53
2023-10-19T16:07:56.093Z,98720.25
2023-10-19T16:10:30.760Z,98723.03
2023-10-19T16:13:04.317Z,98709.75
2023-10-19T16:15:37.546Z,98712.22
2023-10-19T16:18:12.605Z,98713.00
2023-10-19T16:20:46.098Z,98709.16
2023-10-19T16:23:19.845Z,98710.41
2023-10-19T16:26:04.251Z,98708.84
2023-10-19T16:28:37.732Z,98704.63
2023-10-19T16:31:13.031Z,98703.38
2023-10-19T16:33:46.177Z,98718.16
2023-10-19T16:36:19.425Z,98716.63
2023-10-19T16:38:53.256Z,98716.63
2023-10-19T16:41:28.094Z,98715.75
2023-10-19T16:44:01.113Z,98712.50
2023-10-19T16:46:34.834Z,98717.00
2023-10-19T16:49:08.487Z,98717.63
2023-10-19T16:51:45.122Z,98716.88
2023-10-19T16:54:18.847Z,98717.53
2023-10-19T16:56:53.417Z,98717.06
2023-10-19T16:59:28.196Z,98718.31
2023-10-19T17:02:02.808Z,98723.53
2023-10-19T17:04:37.071Z,98726.91
2023-10-19T17:07:10.766Z,98729.56
2023-10-19T17:09:44.959Z,98731.28
2023-10-19T17:12:20.018Z,98728.22
2023-10-19T17:14:53.744Z,98731.94
2023-10-19T17:17:28.086Z,98728.22
2023-10-19T17:20:01.453Z,98727.63
2023-10-19T17:22:34.599Z,98726.38
2023-10-19T17:25:09.189Z,98719.00
2023-10-19T17:27:43.838Z,98709.75
2023-10-19T17:30:16.780Z,98710.22
2023-10-19T17:32:52.509Z,98707.94
2023-10-19T17:35:27.942Z,98711.28
2023-10-19T17:38:01.334Z,98704.88
2023-10-19T17:40:34.865Z,98689.94
2023-10-19T17:43:10.669Z,98693.19
2023-10-19T17:45:47.928Z,98698.13
2023-10-19T17:48:21.257Z,98697.53
2023-10-19T17:50:55.284Z,98691.88
2023-10-19T17:53:29.131Z,98687.38
2023-10-19T17:56:02.456Z,98683.56
2023-10-19T17:58:37.858Z,98685.56
2023-10-19T18:01:12.374Z,98683.75
2023-10-19T18:03:46.158Z,98693.28
2023-10-19T18:06:19.481Z,98699.41
2023-10-19T18:08:52.653Z,98707.59
2023-10-19T18:11:27.217Z,98707.59
2023-10-19T18:14:02.268Z,98701.47
2023-10-19T18:16:35.927Z,98696.84
2023-10-19T18:19:10.552Z,98689.78
2023-10-19T18:21:43.709Z,98689.63
2023-10-19T18:24:17.036Z,98689.03
2023-10-19T18:26:50.273Z,98686.13
2023-10-19T18:29:24.888Z,98690.59
2023-10-19T18:31:58.451Z,98687.84
2023-10-19T18:34:32.122Z,98689.06
2023-10-19T18:37:05.011Z,98690.59
2023-10-19T18:39:38.306Z,98699.88
2023-10-19T18:42:12.660Z,98687.38
2023-10-19T18:44:47.020Z,98687.19
2023-10-19T18:47:20.079Z,98684.00
2023-10-19T18:49:55.532Z,98689.25
2023-10-19T18:52:28.937Z,98690.63
2023-10-19T18:55:02.413Z,98684.75
2023-10-19T18:57:36.611Z,98680.94
2023-10-19T19:00:13.152Z,98677.59
2023-10-19T19:02:47.005Z,98672.19
2023-10-19T19:05:20.516Z,98676.22
2023-10-19T19:07:54.364Z,98663.25
2023-10-19T19:10:34.244Z,98661.13
2023-10-19T19:13:08.204Z,98656.53
2023-10-19T19:15:42.890Z,98654.22
2023-10-19T19:18:16.921Z,98640.84
2023-10-19T19:20:50.243Z,98630.38
2023-10-19T19:23:23.771Z,98635.91
2023-10-19T19:25:57.167Z,98639.31
2023-10-19T19:28:34.189Z,98635.59
2023-10-19T19:31:09.223Z,98626.69
2023-10-19T19:33:42.693Z,98631.63
2023-10-19T19:36:16.820Z,98628.88
2023-10-19T19:38:50.634Z,98627.03
2023-10-19T19:41:24.769Z,98619.97
2023-10-19T19:43:58.268Z,98617.50
2023-10-19T19:46:33.494Z,98614.56
2023-10-19T19:49:07.020Z,98621.78
2023-10-19T19:51:40.282Z,98621.38
2023-10-19T19:54:13.575Z,98624.63
2023-10-19T19:56:47.757Z,98617.06
2023-10-19T19:59:22.480Z,98622.03
2023-10-19T20:01:57.208Z,98607.88
2023-10-19T20:04:30.988Z,98602.16
2023-10-19T20:07:04.467Z,98610.94
2023-10-19T20:09:37.770Z,98604.03
2023-10-19T20:12:11.635Z,98604.97
2023-10-19T20:14:44.514Z,98604.19
2023-10-19T20:17:19.038Z,98594.69
2023-10-19T20:19:52.500Z,98596.38
2023-10-19T20:22:27.540Z,98591.13
2023-10-19T20:25:02.455Z,98582.72
2023-10-19T20:27:35.946Z,98571.97
2023-10-19T20:30:13.727Z,98567.91
2023-10-19T20:32:48.936Z,98568.09
2023-10-19T20:35:27.764Z,98578.22
2023-10-19T20:38:01.822Z,98577.75
2023-10-19T20:40:38.396Z,98578.50
2023-10-19T20:43:12.557Z,98567.75
2023-10-19T20:45:46.164Z,98562.72
2023-10-19T20:48:21.083Z,98563.19
2023-10-19T20:50:54.652Z,98580.69
2023-10-19T20:53:28.178Z,98577.66
2023-10-19T20:56:02.250Z,98566.56
2023-10-19T20:58:35.769Z,98571.94
2023-10-19T21:01:09.716Z,98572.09
2023-10-19T21:03:48.223Z,98566.44
2023-10-19T21:06:21.957Z,98547.81
2023-10-19T21:08:55.115Z,98536.00
2023-10-19T21:11:29.187Z,98530.47
2023-10-19T21:14:02.819Z,98523.56
2023-10-19T21:16:36.542Z,98515.84
2023-10-19T21:19:22.377Z,98513.25
2023-10-19T21:25:05.123Z,98506.78
2023-10-19T21:27:38.316Z,98505.41
2023-10-19T21:30:14.355Z,98514.00
2023-10-19T21:32:48.678Z,98514.88
2023-10-19T21:35:23.207Z,98506.72
2023-10-19T21:37:56.299Z,98508.91
2023-10-19T21:40:29.755Z,98510.56
2023-10-19T21:43:03.727Z,98506.75
2023-10-19T21:45:37.372Z,98507.97
2023-10-19T21:48:10.929Z,98505.34
2023-10-19T21:50:46.541Z,98498.31
2023-10-19T21:53:20.562Z,98495.84
2023-10-19T21:55:55.242Z,98502.31
2023-10-19T22:01:25.343Z,98487.06
2023-10-19T22:03:58.746Z,98481.25
2023-10-19T22:06:33.584Z,98486.13
2023-10-19T22:09:08.012Z,98488.75
2023-10-19T22:11:41.121Z,98488.59
2023-10-19T22:14:14.220Z,98485.84
2023-10-19T22:16:47.628Z,98477.25
2023-10-19T22:19:20.885Z,98478.47
2023-10-19T22:21:55.530Z,98477.25
2023-10-19T22:24:29.444Z,98482.47
2023-10-19T22:27:02.406Z,98478.16
2023-10-19T22:29:35.488Z,98479.09
2023-10-19T22:32:09.311Z,98487.84
2023-10-19T22:34:43.120Z,98487.25
2023-10-19T22:37:17.448Z,98476.19
2023-10-19T22:39:50.422Z,98484.94
2023-10-19T22:42:24.076Z,98473.88
2023-10-19T22:44:57.144Z,98475.41
2023-10-19T22:47:31.548Z,98471.41
2023-10-19T22:50:05.372Z,98464.06
2023-10-19T22:52:40.578Z,98464.66
2023-10-19T22:55:14.679Z,98466.50
2023-10-19T22:57:52.610Z,98466.19
2023-10-19T23:00:28.847Z,98457.44
2023-10-19T23:03:01.967Z,98466.50
2023-10-19T23:05:35.240Z,98461.91
2023-10-19T23:08:10.550Z,98445.47
2023-10-19T23:10:46.691Z,98430.25
2023-10-19T23:13:21.751Z,98436.41
2023-10-19T23:21:51.927Z,98414.28
2023-10-19T23:24:30.665Z,98406.28
2023-10-19T23:27:05.099Z,98402.75
2023-10-19T23:29:45.442Z,98402.94
2023-10-19T23:32:19.660Z,98401.22
2023-10-19T23:34:53.157Z,98391.88
2023-10-19T23:37:26.799Z,98397.97
2023-10-19T23:40:02.280Z,98395.69
2023-10-19T23:42:35.495Z,98394.31
2023-10-19T23:45:12.849Z,98385.72
2023-10-19T23:47:46.183Z,98377.72
2023-10-19T23:50:19.795Z,98375.44
2023-10-19T23:52:54.359Z,98377.72
2023-10-19T23:55:29.028Z,98368.50
2023-10-19T23:58:01.966Z,98354.41
